Time;durP1;ratioP1;P1;durP2;ratioP2;P2;SDS_P1;SDS_P2;PMS_P1;PMS_P2;Temp;Humidity;BMP_temperature;BMP_pressure;BME280_temperature;BME280_humidity;BME280_pressure;Samples;Min_cycle;Max_cycle;Signal;HPM_P1;HPM_P2
2023/02/22 00:02:09;;;;;;;;;;;;;;;5.32;77.61;96400.50;5095819;28;20409;-76
2023/02/22 00:04:41;;;;;;;;;;;;;;;5.30;77.58;96397.28;5095844;28;19952;-76
2023/02/22 00:07:07;;;;;;;;;;;;;;;5.26;77.47;96391.66;5095784;28;19941;-76
2023/02/22 00:09:33;;;;;;;;;;;;;;;5.23;77.89;96394.63;5095459;28;19954;-77
2023/02/22 00:11:59;;;;;;;;;;;;;;;5.21;77.85;96404.41;5095865;28;19953;-77
2023/02/22 00:14:26;;;;;;;;;;;;;;;5.18;77.85;96396.97;5095306;28;19970;-76
2023/02/22 00:16:55;;;;;;;;;;;;;;;5.15;77.89;96399.16;5077497;28;19960;-76
2023/02/22 00:19:20;;;;;;;;;;;;;;;5.12;78.04;96396.91;5095382;28;20399;-76
2023/02/22 00:21:51;;;;;;;;;;;;;;;5.08;78.15;96388.66;5095480;28;20029;-76
2023/02/22 00:24:23;;;;;;;;;;;;;;;5.05;78.58;96400.22;5095214;28;19958;-76
2023/02/22 00:26:54;;;;;;;;;;;;;;;5.02;78.59;96397.22;5095841;28;19957;-76
2023/02/22 00:29:20;;;;;;;;;;;;;;;5.00;78.83;96394.78;5095375;28;19946;-76
2023/02/22 00:31:46;;;;;;;;;;;;;;;4.98;78.88;96396.75;5095453;28;19948;-76
2023/02/22 00:34:12;;;;;;;;;;;;;;;4.96;78.97;96390.16;5095045;28;19963;-76
2023/02/22 00:36:43;;;;;;;;;;;;;;;4.92;78.59;96391.50;5076876;28;19946;-77
2023/02/22 00:39:10;;;;;;;;;;;;;;;4.90;78.53;96383.09;5087187;28;20415;-76
2023/02/22 00:41:36;;;;;;;;;;;;;;;4.86;78.65;96386.03;5094773;28;19947;-77
2023/02/22 00:44:01;;;;;;;;;;;;;;;4.83;78.61;96391.59;5094953;28;20459;-76
2023/02/22 00:46:27;;;;;;;;;;;;;;;4.80;79.04;96389.34;5095012;28;19994;-77
2023/02/22 00:48:53;;;;;;;;;;;;;;;4.76;78.75;96401.09;5094736;28;20430;-77
2023/02/22 00:51:19;;;;;;;;;;;;;;;4.75;79.04;96388.31;5094879;28;19951;-76
2023/02/22 00:53:45;;;;;;;;;;;;;;;4.70;79.27;96388.03;5094595;28;19969;-76
2023/02/22 00:56:11;;;;;;;;;;;;;;;4.66;79.37;96388.41;5094876;28;19950;-76
2023/02/22 00:58:37;;;;;;;;;;;;;;;4.62;79.40;96384.56;5076596;28;20041;-76
2023/02/22 01:01:03;;;;;;;;;;;;;;;4.60;79.10;96383.13;5076798;28;19953;-76
2023/02/22 01:03:31;;;;;;;;;;;;;;;4.59;79.22;96387.53;5094603;28;20029;-76
2023/02/22 01:05:56;;;;;;;;;;;;;;;4.57;79.21;96389.50;5094558;28;19948;-76
2023/02/22 01:08:23;;;;;;;;;;;;;;;4.54;79.83;96384.66;5094542;28;20465;-76
2023/02/22 01:10:51;;;;;;;;;;;;;;;4.52;79.75;96383.25;5094197;28;19951;-77
2023/02/22 01:13:18;;;;;;;;;;;;;;;4.47;79.83;96376.81;5059547;28;19946;-77
2023/02/22 01:15:44;;;;;;;;;;;;;;;4.46;79.97;96371.78;5094349;28;19968;-76
2023/02/22 01:18:11;;;;;;;;;;;;;;;4.43;80.08;96369.53;5094376;28;19952;-76
2023/02/22 01:20:38;;;;;;;;;;;;;;;4.40;80.09;96375.09;5094160;28;19982;-76
2023/02/22 01:23:05;;;;;;;;;;;;;;;4.38;80.08;96371.88;5094410;28;19946;-76
2023/02/22 01:25:31;;;;;;;;;;;;;;;4.37;80.28;96372.88;5094272;28;20316;-76
2023/02/22 01:27:58;;;;;;;;;;;;;;;4.34;80.15;96370.63;5094538;28;19957;-76
2023/02/22 01:30:26;;;;;;;;;;;;;;;4.32;80.36;96375.19;5094157;28;19942;-76
2023/02/22 01:32:52;;;;;;;;;;;;;;;4.29;80.43;96362.59;5093997;28;19945;-77
2023/02/22 01:35:22;;;;;;;;;;;;;;;4.26;80.19;96359.38;5082075;28;19961;-76
2023/02/22 01:37:48;;;;;;;;;;;;;;;4.25;80.45;96360.34;5094462;28;20404;-76
2023/02/22 01:40:16;;;;;;;;;;;;;;;4.23;80.84;96351.13;5094092;28;20044;-76
2023/02/22 01:42:43;;;;;;;;;;;;;;;4.21;80.31;96351.28;5094308;28;19940;-76
2023/02/22 01:45:44;;;;;;;;;;;;;;;4.19;80.46;96347.28;5093576;28;20336;-76
2023/02/22 01:48:12;;;;;;;;;;;;;;;4.14;80.66;96342.63;5011826;28;19947;-76
2023/02/22 01:50:41;;;;;;;;;;;;;;;4.14;81.17;96344.44;5077928;28;19959;-76
2023/02/22 01:53:08;;;;;;;;;;;;;;;4.12;81.43;96342.00;5093781;28;19943;-76
2023/02/22 01:55:34;;;;;;;;;;;;;;;4.11;81.38;96340.38;5093801;28;19973;-77
2023/02/22 01:58:00;;;;;;;;;;;;;;;4.11;82.58;96347.38;5093711;28;19945;-76
2023/02/22 02:00:26;;;;;;;;;;;;;;;4.11;83.28;96342.19;5093826;28;20004;-76
2023/02/22 02:02:58;;;;;;;;;;;;;;;4.12;82.57;96334.22;5093660;28;19955;-76
2023/02/22 02:05:30;;;;;;;;;;;;;;;4.12;83.09;96338.59;5093782;28;19948;-76
2023/02/22 02:07:56;;;;;;;;;;;;;;;4.10;82.76;96328.41;5093704;28;19959;-77
2023/02/22 02:10:23;;;;;;;;;;;;;;;4.08;83.01;96330.38;5093599;28;19952;-77
2023/02/22 02:12:49;;;;;;;;;;;;;;;4.09;82.85;96331.16;5093956;28;19944;-76
2023/02/22 02:15:17;;;;;;;;;;;;;;;4.05;82.84;96334.13;5093660;28;20524;-77
2023/02/22 02:17:43;;;;;;;;;;;;;;;4.03;82.57;96323.13;5093628;28;19954;-76
2023/02/22 02:20:34;;;;;;;;;;;;;;;3.99;82.35;96316.69;5093751;28;19949;-76
2023/02/22 02:22:59;;;;;;;;;;;;;;;3.94;81.73;96308.63;5092992;28;19949;-76
2023/02/22 02:25:40;;;;;;;;;;;;;;;3.92;81.72;96307.19;5093265;28;19950;-77
2023/02/22 02:28:12;;;;;;;;;;;;;;;3.86;81.77;96306.94;5093867;28;19944;-76
2023/02/22 02:30:58;;;;;;;;;;;;;;;3.84;82.12;96306.31;5093481;28;19947;-76
2023/02/22 02:42:44;;;;;;;;;;;;;;;3.79;82.82;96294.84;5012661;23;19973;-73
2023/02/22 02:45:13;;;;;;;;;;;;;;;3.79;83.21;96303.44;4974616;28;19962;-73
2023/02/22 02:47:41;;;;;;;;;;;;;;;3.76;82.34;96290.84;4974647;28;19944;-72
2023/02/22 02:50:22;;;;;;;;;;;;;;;3.73;83.36;96292.97;4974403;28;19956;-72
2023/02/22 02:52:48;;;;;;;;;;;;;;;3.71;82.62;96290.53;4974281;28;19951;-72
2023/02/22 02:55:16;;;;;;;;;;;;;;;3.68;83.09;96279.75;4974414;28;19972;-72
2023/02/22 02:57:42;;;;;;;;;;;;;;;3.64;82.66;96271.50;4976658;28;19963;-72
2023/02/22 03:00:21;;;;;;;;;;;;;;;3.61;83.00;96283.06;4978250;28;19950;-72
2023/02/22 03:02:47;;;;;;;;;;;;;;;3.59;82.83;96273.81;4978195;28;19949;-73
2023/02/22 03:05:31;;;;;;;;;;;;;;;3.54;82.76;96266.56;4960764;28;20335;-72
2023/02/22 03:08:00;;;;;;;;;;;;;;;3.52;82.80;96260.75;4977784;28;20280;-72
2023/02/22 03:10:50;;;;;;;;;;;;;;;3.50;82.91;96264.53;4978213;28;19961;-73
2023/02/22 03:13:39;;;;;;;;;;;;;;;3.49;83.09;96262.94;4977903;28;20558;-72
2023/02/22 03:16:14;;;;;;;;;;;;;;;3.47;84.34;96263.09;4978224;28;19970;-72
2023/02/22 03:18:43;;;;;;;;;;;;;;;3.50;84.50;96260.13;4977758;28;19950;-72
2023/02/22 03:21:15;;;;;;;;;;;;;;;3.51;84.32;96253.16;4977468;28;19944;-73
2023/02/22 03:24:00;;;;;;;;;;;;;;;3.49;83.99;96250.75;4977842;28;19949;-72
2023/02/22 03:26:55;;;;;;;;;;;;;;;3.46;83.80;96251.09;4977355;28;19945;-72
2023/02/22 03:29:23;;;;;;;;;;;;;;;3.42;83.43;96248.09;4968680;28;19946;-73
2023/02/22 03:32:00;;;;;;;;;;;;;;;3.37;83.44;96244.41;4977748;28;19946;-72
2023/02/22 03:34:32;;;;;;;;;;;;;;;3.33;83.73;96243.16;4977539;28;20066;-72
2023/02/22 03:37:02;;;;;;;;;;;;;;;3.30;83.28;96236.53;4962841;28;20424;-72
2023/02/22 03:39:31;;;;;;;;;;;;;;;3.25;83.23;96239.66;4977504;28;19943;-72
2023/02/22 03:42:02;;;;;;;;;;;;;;;3.22;83.41;96242.59;4977214;28;19975;-72
2023/02/22 03:44:30;;;;;;;;;;;;;;;3.19;83.84;96242.13;4977514;28;20407;-72
2023/02/22 03:46:59;;;;;;;;;;;;;;;3.14;83.47;96237.47;4976964;28;19956;-72
2023/02/22 03:49:28;;;;;;;;;;;;;;;3.12;83.31;96233.47;4976987;28;20415;-73
2023/02/22 03:51:55;;;;;;;;;;;;;;;3.09;83.15;96232.03;4977083;28;19958;-72
2023/02/22 03:54:20;;;;;;;;;;;;;;;3.08;83.19;96234.78;4977075;28;19963;-72
2023/02/22 03:56:51;;;;;;;;;;;;;;;3.05;83.51;96239.34;4959896;28;19958;-72
2023/02/22 03:59:18;;;;;;;;;;;;;;;3.03;83.09;96235.31;4977018;28;19952;-72
2023/02/22 04:01:44;;;;;;;;;;;;;;;3.00;83.50;96243.44;4976803;28;19948;-72
2023/02/22 04:04:10;;;;;;;;;;;;;;;2.98;83.24;96232.44;4976924;28;19961;-72
2023/02/22 04:06:36;;;;;;;;;;;;;;;2.96;83.46;96237.00;4977019;28;19983;-72
2023/02/22 04:09:02;;;;;;;;;;;;;;;2.94;83.13;96234.59;4958984;28;20015;-72
2023/02/22 04:11:27;;;;;;;;;;;;;;;2.90;83.55;96238.50;4976876;28;19950;-72
2023/02/22 04:13:53;;;;;;;;;;;;;;;2.90;83.72;96248.88;4943367;28;20003;-72
2023/02/22 04:16:19;;;;;;;;;;;;;;;2.89;84.14;96239.47;4976557;28;20025;-72
2023/02/22 04:18:45;;;;;;;;;;;;;;;2.85;83.96;96238.22;4976460;28;19948;-72
2023/02/22 04:21:11;;;;;;;;;;;;;;;2.83;83.69;96237.56;4976678;28;20457;-72
2023/02/22 04:23:37;;;;;;;;;;;;;;;2.80;83.52;96237.94;4976434;28;20022;-72
2023/02/22 04:26:03;;;;;;;;;;;;;;;2.77;83.66;96233.09;4976591;28;20060;-72
2023/02/22 04:28:28;;;;;;;;;;;;;;;2.73;83.58;96242.19;4976535;28;20041;-72
2023/02/22 04:30:54;;;;;;;;;;;;;;;2.70;85.03;96245.94;4976542;28;20575;-72
2023/02/22 04:33:20;;;;;;;;;;;;;;;2.70;85.13;96247.72;4976890;28;19948;-72
2023/02/22 04:35:46;;;;;;;;;;;;;;;2.71;85.67;96246.72;4976434;28;19974;-73
2023/02/22 04:38:12;;;;;;;;;;;;;;;2.72;85.66;96245.78;4976631;28;19984;-72
2023/02/22 04:40:38;;;;;;;;;;;;;;;2.70;86.61;96247.72;4976124;28;20038;-72
2023/02/22 04:43:04;;;;;;;;;;;;;;;2.68;87.14;96247.09;4976153;28;19959;-72
2023/02/22 04:45:29;;;;;;;;;;;;;;;2.69;86.76;96243.50;4976024;28;19988;-72
2023/02/22 04:47:55;;;;;;;;;;;;;;;2.67;86.95;96246.28;4976086;28;19975;-72
2023/02/22 04:50:21;;;;;;;;;;;;;;;2.68;87.96;96244.50;4976607;28;19949;-72
2023/02/22 04:52:47;;;;;;;;;;;;;;;2.68;86.87;96236.75;4975787;28;19997;-72
2023/02/22 04:55:15;;;;;;;;;;;;;;;2.68;87.46;96242.72;4975326;28;19959;-72
2023/02/22 04:57:41;;;;;;;;;;;;;;;2.68;86.87;96234.94;4975693;28;19944;-72
2023/02/22 05:00:09;;;;;;;;;;;;;;;2.69;86.39;96230.56;4976044;28;19955;-72
2023/02/22 05:02:37;;;;;;;;;;;;;;;2.66;86.86;96231.72;4958539;28;19948;-72
2023/02/22 05:05:03;;;;;;;;;;;;;;;2.67;87.08;96232.53;4966387;28;19950;-72
2023/02/22 05:07:29;;;;;;;;;;;;;;;2.66;86.92;96230.94;4975646;28;19944;-72
2023/02/22 05:09:55;;;;;;;;;;;;;;;2.66;86.64;96233.50;4975661;28;19951;-72
2023/02/22 05:12:21;;;;;;;;;;;;;;;2.64;86.71;96239.66;4957949;28;19955;-72
2023/02/22 05:14:47;;;;;;;;;;;;;;;2.62;86.70;96235.63;4975695;28;20005;-72
2023/02/22 05:17:12;;;;;;;;;;;;;;;2.62;86.23;96231.28;4975307;28;20032;-72
2023/02/22 05:19:39;;;;;;;;;;;;;;;2.61;86.34;96239.22;4957344;28;20377;-72
2023/02/22 05:22:05;;;;;;;;;;;;;;;2.59;86.67;96234.19;4975532;28;19957;-73
2023/02/22 05:24:31;;;;;;;;;;;;;;;2.58;86.51;96229.19;4975546;28;19945;-72
2023/02/22 05:26:57;;;;;;;;;;;;;;;2.57;86.34;96222.41;4975241;28;19991;-72
2023/02/22 05:29:23;;;;;;;;;;;;;;;2.57;86.30;96219.81;4958229;28;20009;-72
2023/02/22 05:31:49;;;;;;;;;;;;;;;2.56;86.67;96218.19;4975392;28;19952;-72
2023/02/22 05:34:15;;;;;;;;;;;;;;;2.55;87.04;96222.59;4975484;28;19950;-72
2023/02/22 05:36:41;;;;;;;;;;;;;;;2.55;87.06;96217.41;4975175;28;19949;-72
2023/02/22 05:39:07;;;;;;;;;;;;;;;2.54;87.58;96220.97;4975269;28;20439;-72
2023/02/22 05:41:33;;;;;;;;;;;;;;;2.55;87.23;96214.81;4974926;28;19978;-72
2023/02/22 05:43:59;;;;;;;;;;;;;;;2.55;87.85;96214.81;4974980;28;19955;-72
2023/02/22 05:46:25;;;;;;;;;;;;;;;2.56;88.58;96213.03;4975172;28;19953;-72
2023/02/22 05:48:51;;;;;;;;;;;;;;;2.56;88.55;96211.25;4942199;28;20354;-72
2023/02/22 05:51:18;;;;;;;;;;;;;;;2.56;87.63;96210.44;4975047;28;20323;-72
2023/02/22 05:53:44;;;;;;;;;;;;;;;2.54;87.78;96205.47;4957826;28;19953;-73
2023/02/22 05:56:10;;;;;;;;;;;;;;;2.53;87.81;96197.84;4975009;28;19981;-72
2023/02/22 05:58:36;;;;;;;;;;;;;;;2.54;87.73;96204.63;4942083;28;19987;-72
2023/02/22 06:01:01;;;;;;;;;;;;;;;2.54;87.30;96199.44;4974978;28;19946;-72
2023/02/22 06:03:27;;;;;;;;;;;;;;;2.52;87.47;96198.81;4975046;28;19963;-72
2023/02/22 06:05:53;;;;;;;;;;;;;;;2.51;87.32;96197.22;4975130;28;19961;-72
2023/02/22 06:08:19;;;;;;;;;;;;;;;2.51;87.07;96200.59;4957740;28;20000;-73
2023/02/22 06:10:45;;;;;;;;;;;;;;;2.49;86.68;96196.59;4975099;28;19959;-72
2023/02/22 06:13:11;;;;;;;;;;;;;;;2.48;86.79;96198.38;4974717;28;19956;-72
2023/02/22 06:15:36;;;;;;;;;;;;;;;2.46;86.72;96197.75;4974802;28;20022;-72
2023/02/22 06:18:02;;;;;;;;;;;;;;;2.44;86.78;96197.13;4974788;28;19950;-72
2023/02/22 06:20:29;;;;;;;;;;;;;;;2.43;87.44;96208.44;4957573;28;19952;-72
2023/02/22 06:22:57;;;;;;;;;;;;;;;2.43;87.04;96205.84;4974543;28;19952;-72
2023/02/22 06:25:27;;;;;;;;;;;;;;;2.42;87.38;96206.84;4958020;28;19963;-72
2023/02/22 06:27:53;;;;;;;;;;;;;;;2.41;87.03;96205.22;4974935;28;19948;-72
2023/02/22 06:30:20;;;;;;;;;;;;;;;2.40;87.19;96209.59;4957531;28;19954;-73
2023/02/22 06:32:46;;;;;;;;;;;;;;;2.41;87.22;96215.56;4978435;28;19949;-72
2023/02/22 06:35:13;;;;;;;;;;;;;;;2.42;87.08;96210.22;4978546;28;19970;-73
2023/02/22 06:37:39;;;;;;;;;;;;;;;2.43;87.39;96211.81;4978451;28;20435;-72
2023/02/22 06:40:05;;;;;;;;;;;;;;;2.46;87.46;96209.84;4978333;28;20007;-72
2023/02/22 06:42:31;;;;;;;;;;;;;;;2.49;87.08;96212.91;4978106;28;19982;-72
2023/02/22 06:44:57;;;;;;;;;;;;;;;2.52;87.21;96215.19;4978554;28;19961;-72
2023/02/22 06:47:23;;;;;;;;;;;;;;;2.56;87.32;96216.44;4961150;28;20328;-72
2023/02/22 06:49:56;;;;;;;;;;;;;;;2.75;86.97;96212.56;4971969;28;20022;-72
2023/02/22 06:52:23;;;;;;;;;;;;;;;3.03;86.29;96218.00;4960779;28;19947;-72
2023/02/22 06:54:49;;;;;;;;;;;;;;;3.26;85.96;96209.38;4960980;28;19949;-72
2023/02/22 06:57:15;;;;;;;;;;;;;;;3.54;85.12;96209.53;4977912;28;19953;-72
2023/02/22 06:59:41;;;;;;;;;;;;;;;3.76;84.42;96201.81;4977967;28;19954;-72
2023/02/22 07:02:09;;;;;;;;;;;;;;;3.88;84.00;96197.00;4978068;28;19976;-72
2023/02/22 07:04:35;;;;;;;;;;;;;;;3.95;83.80;96200.44;4977831;28;19945;-72
2023/02/22 07:07:01;;;;;;;;;;;;;;;4.12;83.45;96195.88;4961042;28;19948;-72
2023/02/22 07:09:26;;;;;;;;;;;;;;;4.33;82.85;96189.91;4977979;28;19961;-72
2023/02/22 07:11:52;;;;;;;;;;;;;;;4.41;81.77;96188.00;4977913;28;19981;-73
2023/02/22 07:14:18;;;;;;;;;;;;;;;4.45;81.45;96185.81;4977977;28;20013;-72
2023/02/22 07:16:44;;;;;;;;;;;;;;;4.47;81.49;96189.84;4960317;28;19988;-73
2023/02/22 07:19:10;;;;;;;;;;;;;;;4.51;81.39;96185.06;4977801;28;19994;-73
2023/02/22 07:21:36;;;;;;;;;;;;;;;4.56;81.25;96190.53;4977683;28;20393;-72
2023/02/22 07:24:01;;;;;;;;;;;;;;;4.54;80.74;96187.31;4977712;28;19951;-74
2023/02/22 07:26:27;;;;;;;;;;;;;;;4.51;80.73;96185.06;4959623;28;19953;-73
2023/02/22 07:28:53;;;;;;;;;;;;;;;4.48;80.28;96180.25;4959991;28;20463;-73
2023/02/22 07:31:19;;;;;;;;;;;;;;;4.45;80.84;96188.41;4977552;28;20299;-72
2023/02/22 07:33:45;;;;;;;;;;;;;;;4.43;80.01;96180.00;4977503;28;19969;-73
2023/02/22 07:36:13;;;;;;;;;;;;;;;4.35;79.89;96180.16;4977424;28;19969;-73
2023/02/22 07:38:39;;;;;;;;;;;;;;;4.29;80.46;96184.28;4977456;28;19951;-72
2023/02/22 07:41:05;;;;;;;;;;;;;;;4.30;80.89;96190.25;4977308;28;20447;-73
2023/02/22 07:43:31;;;;;;;;;;;;;;;4.38;80.99;96187.53;4976497;28;19958;-73
2023/02/22 07:46:01;;;;;;;;;;;;;;;4.55;81.31;96201.88;4977232;28;19951;-73
2023/02/22 07:48:28;;;;;;;;;;;;;;;4.70;80.73;96180.25;4976904;28;19951;-73
2023/02/22 07:50:54;;;;;;;;;;;;;;;4.88;79.93;96180.59;4977388;28;19951;-73
2023/02/22 07:53:21;;;;;;;;;;;;;;;5.09;79.74;96188.34;4976944;28;19961;-73
2023/02/22 07:55:49;;;;;;;;;;;;;;;5.26;78.93;96175.06;4977184;28;19974;-73
2023/02/22 07:58:16;;;;;;;;;;;;;;;5.36;78.10;96162.53;4977018;28;19942;-73
2023/02/22 08:00:47;;;;;;;;;;;;;;;5.55;78.10;96165.41;4976884;28;19953;-73
2023/02/22 08:03:13;;;;;;;;;;;;;;;5.69;76.75;96157.47;4977069;28;20313;-73
2023/02/22 08:05:40;;;;;;;;;;;;;;;5.70;76.76;96156.47;4976915;28;20344;-73
2023/02/22 08:08:07;;;;;;;;;;;;;;;5.93;76.96;96162.38;4976711;28;19952;-73
2023/02/22 08:10:34;;;;;;;;;;;;;;;6.22;75.68;96149.06;4977131;28;19950;-73
2023/02/22 08:13:00;;;;;;;;;;;;;;;6.53;74.57;96147.72;4976595;28;19956;-73
2023/02/22 08:15:28;;;;;;;;;;;;;;;6.74;74.04;96140.69;4976636;28;19974;-73
2023/02/22 08:17:55;;;;;;;;;;;;;;;6.89;73.09;96133.47;4976507;28;19950;-73
2023/02/22 08:20:21;;;;;;;;;;;;;;;7.11;73.41;96132.22;4976841;28;20315;-73
2023/02/22 08:22:47;;;;;;;;;;;;;;;7.47;72.31;96128.31;4976439;28;19963;-73
2023/02/22 08:25:15;;;;;;;;;;;;;;;7.80;71.26;96118.78;4976510;28;19945;-73
2023/02/22 08:27:42;;;;;;;;;;;;;;;8.09;71.75;96123.44;4976489;28;20392;-73
2023/02/22 08:30:14;;;;;;;;;;;;;;;8.34;71.40;96128.72;4976099;28;19941;-73
2023/02/22 08:32:40;;;;;;;;;;;;;;;8.49;69.37;96117.19;4943324;28;19966;-73
2023/02/22 08:35:06;;;;;;;;;;;;;;;8.53;70.15;96118.38;4976289;28;19947;-73
2023/02/22 08:37:32;;;;;;;;;;;;;;;8.50;69.96;96118.78;4976402;28;19944;-73
2023/02/22 08:39:58;;;;;;;;;;;;;;;8.45;69.73;96119.41;4976137;28;19980;-73
2023/02/22 08:42:24;;;;;;;;;;;;;;;8.48;69.97;96126.03;4976003;28;19984;-72
2023/02/22 08:44:50;;;;;;;;;;;;;;;8.46;70.63;96128.88;4976180;28;20000;-73
2023/02/22 08:47:16;;;;;;;;;;;;;;;8.46;70.92;96130.66;4975230;28;19954;-73
2023/02/22 08:49:42;;;;;;;;;;;;;;;8.41;70.72;96130.50;4975879;28;20464;-72
2023/02/22 08:52:07;;;;;;;;;;;;;;;8.48;70.97;96126.84;4976540;28;20496;-72
2023/02/22 08:54:33;;;;;;;;;;;;;;;8.58;70.79;96130.78;4975937;28;19952;-73
2023/02/22 08:56:59;;;;;;;;;;;;;;;8.76;70.71;96132.66;4975712;28;20066;-73
2023/02/22 08:59:26;;;;;;;;;;;;;;;9.00;70.11;96129.22;4975976;28;19986;-73
2023/02/22 09:01:51;;;;;;;;;;;;;;;9.18;69.30;96120.63;4975946;28;20336;-72
2023/02/22 09:04:17;;;;;;;;;;;;;;;9.25;69.95;96129.19;4975559;28;19953;-72
2023/02/22 09:06:47;;;;;;;;;;;;;;;9.39;69.68;96123.84;4958426;28;19962;-73
2023/02/22 09:09:13;;;;;;;;;;;;;;;9.50;69.75;96129.13;4975951;28;19951;-73
2023/02/22 09:11:38;;;;;;;;;;;;;;;9.73;69.36;96117.97;4975504;28;19977;-73
2023/02/22 09:14:04;;;;;;;;;;;;;;;10.01;68.47;96113.19;4975531;28;20361;-73
2023/02/22 09:16:30;;;;;;;;;;;;;;;10.12;67.75;96100.16;4975527;28;20383;-73
2023/02/22 09:18:56;;;;;;;;;;;;;;;10.07;68.10;96115.72;4975591;28;19957;-73
2023/02/22 09:21:22;;;;;;;;;;;;;;;10.18;66.73;96103.69;4975435;28;19950;-73
2023/02/22 09:23:48;;;;;;;;;;;;;;;10.29;67.99;96113.44;4975504;28;19948;-73
2023/02/22 09:26:17;;;;;;;;;;;;;;;10.32;67.78;96118.22;4958249;28;19951;-73
2023/02/22 09:28:42;;;;;;;;;;;;;;;10.32;67.31;96112.19;4975115;28;19950;-73
2023/02/22 09:31:08;;;;;;;;;;;;;;;10.46;68.27;96118.06;4975210;28;19950;-73
2023/02/22 09:33:34;;;;;;;;;;;;;;;10.65;69.07;96116.94;4975189;28;19987;-73
2023/02/22 09:36:01;;;;;;;;;;;;;;;10.81;67.25;96109.41;4958020;28;19960;-73
2023/02/22 09:38:28;;;;;;;;;;;;;;;10.90;66.86;96095.75;4941698;28;20048;-73
2023/02/22 09:41:11;;;;;;;;;;;;;;;10.99;66.39;96098.03;4974909;28;19967;-73
2023/02/22 09:43:48;;;;;;;;;;;;;;;11.06;66.79;96091.63;4975175;28;19962;-73
2023/02/22 09:46:25;;;;;;;;;;;;;;;11.19;66.17;96085.34;4975290;28;20324;-73
2023/02/22 09:48:56;;;;;;;;;;;;;;;11.31;65.72;96091.38;4975262;28;19952;-73
2023/02/22 09:51:26;;;;;;;;;;;;;;;11.42;63.88;96078.47;4975048;28;19945;-73
2023/02/22 09:53:55;;;;;;;;;;;;;;;11.45;64.00;96086.69;4974885;28;20310;-73
2023/02/22 09:56:21;;;;;;;;;;;;;;;11.56;63.68;96090.31;4975334;28;19982;-72
2023/02/22 09:58:51;;;;;;;;;;;;;;;11.60;62.56;96085.38;4974894;28;19962;-72
2023/02/22 10:01:32;;;;;;;;;;;;;;;11.64;63.96;96089.16;4974893;28;20347;-72
2023/02/22 10:04:17;;;;;;;;;;;;;;;11.73;65.00;96095.63;4975064;28;20359;-73
2023/02/22 10:06:51;;;;;;;;;;;;;;;11.84;63.15;96092.13;4979501;28;20306;-72
2023/02/22 10:09:17;;;;;;;;;;;;;;;11.95;63.19;96087.94;4980689;28;19953;-74
2023/02/22 10:12:07;;;;;;;;;;;;;;;12.03;62.08;96090.16;4981366;28;19951;-72
2023/02/22 10:14:57;;;;;;;;;;;;;;;12.10;62.26;96093.44;4981177;28;19942;-72
2023/02/22 10:17:23;;;;;;;;;;;;;;;12.17;61.54;96080.16;4935997;28;19968;-73
2023/02/22 10:20:04;;;;;;;;;;;;;;;12.22;64.30;96097.84;4980712;28;19947;-73
2023/02/22 10:22:30;;;;;;;;;;;;;;;12.27;61.20;96082.16;4981237;28;20438;-73
2023/02/22 10:25:01;;;;;;;;;;;;;;;12.34;59.93;96085.44;4981067;28;19951;-73
2023/02/22 10:27:37;;;;;;;;;;;;;;;12.42;59.07;96084.25;4964057;28;19952;-73
2023/02/22 10:30:03;;;;;;;;;;;;;;;12.46;60.46;96088.00;4981191;28;19955;-73
2023/02/22 10:32:56;;;;;;;;;;;;;;;12.47;60.91;96084.31;4981156;28;19947;-72
2023/02/22 10:35:21;;;;;;;;;;;;;;;12.42;58.85;96084.25;4948262;28;20331;-73
2023/02/22 10:37:51;;;;;;;;;;;;;;;12.46;59.55;96082.75;4981529;28;19978;-73
2023/02/22 10:40:21;;;;;;;;;;;;;;;12.53;58.41;96086.78;4963704;28;19950;-73
2023/02/22 10:42:48;;;;;;;;;;;;;;;12.68;61.40;96091.53;4981074;28;20432;-73
2023/02/22 10:45:24;;;;;;;;;;;;;;;12.77;59.14;96084.03;4981019;28;19955;-73
2023/02/22 10:47:53;;;;;;;;;;;;;;;12.76;60.96;96083.22;4979853;28;19943;-75
2023/02/22 10:50:19;;;;;;;;;;;;;;;12.79;59.65;96081.94;4963942;28;20313;-73
2023/02/22 10:52:45;;;;;;;;;;;;;;;12.73;57.72;96075.00;4980772;28;19960;-73
2023/02/22 10:55:14;;;;;;;;;;;;;;;12.71;58.54;96077.88;4963588;28;20251;-73
2023/02/22 10:57:42;;;;;;;;;;;;;;;12.77;59.51;96081.41;4979794;28;20321;-73
2023/02/22 11:00:19;;;;;;;;;;;;;;;12.76;58.68;96066.63;4990934;28;20427;-72
2023/02/22 11:02:52;;;;;;;;;;;;;;;13.02;60.17;96085.41;4980918;28;19962;-73
2023/02/22 11:05:27;;;;;;;;;;;;;;;13.30;57.43;96068.72;4981003;28;20044;-73
2023/02/22 11:08:12;;;;;;;;;;;;;;;13.52;57.09;96069.53;4980771;28;19957;-73
2023/02/22 11:10:38;;;;;;;;;;;;;;;13.77;58.19;96063.75;4980908;28;19951;-73
2023/02/22 11:13:15;;;;;;;;;;;;;;;13.89;57.35;96060.19;4981076;28;20415;-73
2023/02/22 11:15:41;;;;;;;;;;;;;;;14.11;56.12;96053.03;4980569;28;19959;-73
2023/02/22 11:18:20;;;;;;;;;;;;;;;14.14;54.15;96049.88;4977484;28;19957;-73
2023/02/22 11:20:46;;;;;;;;;;;;;;;14.17;53.77;96038.03;4977797;28;19950;-73
2023/02/22 11:23:13;;;;;;;;;;;;;;;14.13;54.14;96040.38;4977475;28;19949;-73
2023/02/22 11:25:41;;;;;;;;;;;;;;;14.16;54.69;96049.63;4977607;28;19951;-73
2023/02/22 11:28:08;;;;;;;;;;;;;;;14.30;54.22;96034.16;4977598;28;19946;-73
2023/02/22 11:30:35;;;;;;;;;;;;;;;14.45;53.31;96036.94;4977955;28;20420;-73
2023/02/22 11:33:16;;;;;;;;;;;;;;;14.62;52.98;96039.47;4977464;28;19954;-73
2023/02/22 11:35:52;;;;;;;;;;;;;;;14.78;49.78;96024.53;4977102;28;20014;-73
2023/02/22 11:38:22;;;;;;;;;;;;;;;14.84;49.56;96028.00;4977711;28;19943;-73
2023/02/22 11:41:03;;;;;;;;;;;;;;;14.93;52.07;96040.47;4977524;28;20437;-73
2023/02/22 11:43:30;;;;;;;;;;;;;;;15.12;51.67;96029.47;4977077;28;19951;-73
2023/02/22 11:46:07;;;;;;;;;;;;;;;15.17;50.14;96025.00;4977228;28;19960;-74
2023/02/22 11:48:38;;;;;;;;;;;;;;;15.08;49.35;96023.13;4977184;28;19948;-73
2023/02/22 11:51:13;;;;;;;;;;;;;;;14.92;47.43;96019.59;4977729;28;20319;-73
2023/02/22 11:53:51;;;;;;;;;;;;;;;14.77;50.15;96031.66;4977305;28;19955;-73
2023/02/22 11:56:20;;;;;;;;;;;;;;;14.73;51.10;96033.22;4976916;28;19965;-73
2023/02/22 11:58:53;;;;;;;;;;;;;;;14.74;50.60;96023.44;4977567;28;19945;-73
2023/02/22 12:01:28;;;;;;;;;;;;;;;14.89;51.70;96020.91;4976931;28;20330;-73
2023/02/22 12:04:14;;;;;;;;;;;;;;;15.01;50.45;96015.41;4976963;28;19949;-73
2023/02/22 12:06:40;;;;;;;;;;;;;;;15.15;50.47;96019.19;4976805;28;20393;-73
2023/02/22 12:09:12;;;;;;;;;;;;;;;15.25;49.03;96009.75;4976496;28;19949;-74
2023/02/22 12:11:49;;;;;;;;;;;;;;;15.39;50.87;96016.09;4977029;28;19948;-73
2023/02/22 12:14:20;;;;;;;;;;;;;;;15.49;50.52;96016.16;4976532;28;19963;-75
2023/02/22 12:16:56;;;;;;;;;;;;;;;15.60;50.63;96009.84;4976498;28;19968;-75
2023/02/22 12:19:37;;;;;;;;;;;;;;;15.69;50.23;96007.50;4976362;28;20402;-75
2023/02/22 12:22:07;;;;;;;;;;;;;;;15.54;49.86;96007.44;4976710;28;19948;-75
2023/02/22 12:24:37;;;;;;;;;;;;;;;15.51;48.12;96003.47;4976567;28;19955;-73
2023/02/22 12:27:08;;;;;;;;;;;;;;;15.41;48.03;96003.44;4976700;28;19945;-73
2023/02/22 12:29:45;;;;;;;;;;;;;;;15.27;49.65;96005.78;4975929;28;20423;-74
2023/02/22 12:32:15;;;;;;;;;;;;;;;15.33;49.25;96007.38;4976474;28;19951;-73
2023/02/22 12:35:13;;;;;;;;;;;;;;;15.40;46.93;96002.66;4976130;28;20399;-73
2023/02/22 12:37:42;;;;;;;;;;;;;;;15.27;50.12;96018.19;4923104;28;19996;-74
2023/02/22 12:40:12;;;;;;;;;;;;;;;15.01;49.01;96008.31;4976161;28;19959;-73
2023/02/22 12:42:46;;;;;;;;;;;;;;;14.74;48.00;96008.41;4977001;28;20446;-73
2023/02/22 12:45:20;;;;;;;;;;;;;;;14.53;50.15;96020.66;4975999;28;20392;-73
2023/02/22 12:47:51;;;;;;;;;;;;;;;14.50;51.12;96015.09;4976449;28;19950;-73
2023/02/22 12:50:21;;;;;;;;;;;;;;;14.64;50.81;96018.13;4958993;28;19960;-74
2023/02/22 12:53:07;;;;;;;;;;;;;;;14.71;49.41;96005.50;4963174;28;19966;-73
2023/02/22 12:55:35;;;;;;;;;;;;;;;14.84;49.84;96005.03;4958872;28;19942;-73
2023/02/22 12:58:31;;;;;;;;;;;;;;;14.91;49.46;95996.88;4975666;28;19965;-73
2023/02/22 13:00:59;;;;;;;;;;;;;;;14.90;47.48;95997.94;4945522;28;19940;-73
2023/02/22 13:03:31;;;;;;;;;;;;;;;14.88;49.43;96003.47;4975807;28;19955;-73
2023/02/22 13:06:00;;;;;;;;;;;;;;;14.78;48.94;95996.31;4975572;28;19952;-73
2023/02/22 13:08:34;;;;;;;;;;;;;;;14.69;49.30;95999.66;4975610;28;19943;-73
2023/02/22 13:11:00;;;;;;;;;;;;;;;14.58;48.81;95994.31;4976135;28;19950;-73
2023/02/22 13:13:44;;;;;;;;;;;;;;;14.55;49.31;95999.28;4975446;28;19955;-74